createdAt,value
2023-03-19T00:02:16.980Z,25.05
2023-03-19T00:04:45.582Z,25.04
2023-03-19T00:07:12.576Z,25.03
2023-03-19T00:09:39.523Z,24.96
2023-03-19T00:12:08.763Z,24.92
2023-03-19T00:14:35.675Z,24.89
2023-03-19T00:17:02.528Z,24.89
2023-03-19T00:19:29.468Z,24.89
2023-03-19T00:21:56.911Z,24.90
2023-03-19T00:24:23.750Z,24.87
2023-03-19T00:26:51.301Z,24.86
2023-03-19T00:29:19.571Z,24.87
2023-03-19T00:31:47.670Z,24.85
2023-03-19T00:34:14.504Z,24.85
2023-03-19T00:36:41.577Z,24.85
2023-03-19T00:39:09.029Z,24.84
2023-03-19T00:41:35.835Z,24.85
2023-03-19T00:44:03.745Z,24.83
2023-03-19T00:46:32.212Z,24.83
2023-03-19T00:48:59.466Z,24.84
2023-03-19T00:51:26.371Z,24.83
2023-03-19T00:53:54.062Z,24.82
2023-03-19T00:56:20.914Z,24.82
2023-03-19T00:58:48.130Z,24.82
2023-03-19T01:01:17.829Z,24.82
2023-03-19T01:03:47.206Z,24.82
2023-03-19T01:06:14.270Z,24.85
2023-03-19T01:08:41.618Z,24.92
2023-03-19T01:11:10.421Z,24.95
2023-03-19T01:13:38.523Z,24.94
2023-03-19T01:16:06.011Z,24.93
2023-03-19T01:18:33.014Z,24.94
2023-03-19T01:21:01.306Z,24.92
2023-03-19T01:23:29.720Z,24.95
2023-03-19T01:25:57.473Z,24.93
2023-03-19T01:28:25.923Z,24.92
2023-03-19T01:30:53.144Z,24.92
2023-03-19T01:33:38.674Z,24.91
2023-03-19T01:36:19.185Z,24.90
2023-03-19T01:38:57.090Z,24.89
2023-03-19T01:41:24.482Z,24.89
2023-03-19T01:43:52.962Z,24.90
2023-03-19T01:46:37.860Z,24.88
2023-03-19T01:49:31.210Z,24.87
2023-03-19T01:52:16.030Z,24.86
2023-03-19T01:54:55.678Z,24.88
2023-03-19T01:57:48.705Z,24.85
2023-03-19T02:00:38.287Z,24.86
2023-03-19T02:03:06.417Z,24.86
2023-03-19T02:05:41.339Z,24.86
2023-03-19T02:08:15.816Z,24.86
2023-03-19T02:10:44.507Z,24.87
2023-03-19T02:13:12.359Z,24.87
2023-03-19T02:15:39.601Z,24.85
2023-03-19T02:18:07.823Z,24.85
2023-03-19T02:20:40.332Z,24.85
2023-03-19T02:23:15.622Z,24.85
2023-03-19T02:25:57.634Z,24.85
2023-03-19T02:28:25.432Z,24.84
2023-03-19T02:30:53.926Z,24.84
2023-03-19T02:33:21.051Z,24.83
2023-03-19T02:35:50.540Z,24.82
2023-03-19T02:38:22.413Z,24.84
2023-03-19T02:40:53.923Z,24.84
2023-03-19T02:43:22.435Z,24.83
2023-03-19T02:45:51.809Z,24.82
2023-03-19T02:48:18.732Z,24.82
2023-03-19T02:50:45.866Z,24.81
2023-03-19T02:53:12.732Z,24.82
2023-03-19T02:55:39.589Z,24.81
2023-03-19T02:58:08.148Z,24.82
2023-03-19T03:00:35.325Z,24.81
2023-03-19T03:03:03.198Z,24.80
2023-03-19T03:05:30.133Z,24.80
2023-03-19T03:07:58.188Z,24.79
2023-03-19T03:10:26.009Z,24.81
2023-03-19T03:12:53.002Z,24.82
2023-03-19T03:15:21.761Z,24.80
2023-03-19T03:17:48.641Z,24.79
2023-03-19T03:20:17.785Z,24.82
2023-03-19T03:22:44.757Z,24.82
2023-03-19T03:25:11.811Z,24.80
2023-03-19T03:27:38.993Z,24.81
2023-03-19T03:30:08.577Z,24.82
2023-03-19T03:32:38.169Z,24.80
2023-03-19T03:35:06.584Z,24.79
2023-03-19T03:37:33.434Z,24.78
2023-03-19T03:40:00.477Z,24.77
2023-03-19T03:42:27.431Z,24.76
2023-03-19T03:44:54.535Z,24.77
2023-03-19T03:47:21.484Z,24.77
2023-03-19T03:49:49.964Z,24.78
2023-03-19T03:52:17.431Z,24.79
2023-03-19T03:54:44.543Z,24.79
2023-03-19T03:57:12.389Z,24.79
2023-03-19T03:59:39.520Z,24.77
2023-03-19T04:02:06.716Z,24.76
2023-03-19T04:04:33.922Z,24.77
2023-03-19T04:07:02.376Z,24.75
2023-03-19T04:09:39.561Z,24.74
2023-03-19T04:12:06.807Z,24.75
2023-03-19T04:14:33.798Z,24.76
2023-03-19T04:17:00.867Z,24.77
2023-03-19T04:19:28.381Z,24.76
2023-03-19T04:21:55.340Z,24.74
2023-03-19T04:24:24.573Z,24.74
2023-03-19T04:26:54.700Z,24.74
2023-03-19T04:29:23.058Z,24.76
2023-03-19T04:31:51.337Z,24.76
2023-03-19T04:34:19.649Z,24.75
2023-03-19T04:36:46.669Z,24.74
2023-03-19T04:39:13.919Z,24.75
2023-03-19T04:41:42.320Z,24.74
2023-03-19T04:44:32.184Z,24.72
2023-03-19T04:47:01.425Z,24.72
2023-03-19T04:49:32.389Z,24.73
2023-03-19T04:51:59.514Z,24.73
2023-03-19T04:54:26.556Z,24.71
2023-03-19T04:56:55.189Z,24.72
2023-03-19T04:59:24.447Z,24.72
2023-03-19T05:01:51.794Z,24.73
2023-03-19T05:04:23.469Z,24.73
2023-03-19T05:06:54.132Z,24.72
2023-03-19T05:09:21.167Z,24.72
2023-03-19T05:11:48.287Z,24.72
2023-03-19T05:14:20.759Z,24.72
2023-03-19T05:17:01.672Z,24.72
2023-03-19T05:19:38.414Z,24.72
2023-03-19T05:22:08.425Z,24.70
2023-03-19T05:24:35.540Z,24.72
2023-03-19T05:27:03.077Z,24.72
2023-03-19T05:29:48.323Z,24.71
2023-03-19T05:32:48.392Z,24.70
2023-03-19T05:35:26.221Z,24.68
2023-03-19T05:37:53.253Z,24.70
2023-03-19T05:40:20.529Z,24.69
2023-03-19T05:42:48.402Z,24.68
2023-03-19T05:45:19.710Z,24.71
2023-03-19T05:47:51.143Z,24.70
2023-03-19T05:50:20.046Z,24.68
2023-03-19T05:53:07.316Z,24.70
2023-03-19T05:55:36.674Z,24.68
2023-03-19T05:58:07.816Z,24.68
2023-03-19T06:00:37.230Z,24.68
2023-03-19T06:03:04.585Z,24.67
2023-03-19T06:05:49.396Z,24.66
2023-03-19T06:08:36.648Z,24.67
2023-03-19T06:11:16.274Z,24.66
2023-03-19T06:13:47.350Z,24.66
2023-03-19T06:16:18.261Z,24.69
2023-03-19T06:18:53.071Z,24.67
2023-03-19T06:21:20.223Z,24.65
2023-03-19T06:23:47.298Z,24.69
2023-03-19T06:26:18.776Z,24.72
2023-03-19T06:28:53.080Z,24.78
2023-03-19T06:31:22.026Z,24.82
2023-03-19T06:34:08.110Z,24.86
2023-03-19T06:36:40.945Z,24.91
2023-03-19T06:39:10.641Z,24.97
2023-03-19T06:41:37.922Z,25.01
2023-03-19T06:44:14.232Z,25.04
2023-03-19T06:46:42.647Z,25.11
2023-03-19T06:49:09.819Z,25.17
2023-03-19T06:51:37.160Z,25.23
2023-03-19T06:54:04.318Z,25.29
2023-03-19T06:56:31.309Z,25.34
2023-03-19T06:58:58.557Z,25.38
2023-03-19T07:01:25.997Z,25.44
2023-03-19T07:03:54.510Z,25.48
2023-03-19T07:06:21.442Z,25.52
2023-03-19T07:08:48.418Z,25.56
2023-03-19T07:11:16.646Z,25.60
2023-03-19T07:13:43.762Z,25.65
2023-03-19T07:16:10.919Z,25.68
2023-03-19T07:18:37.981Z,25.72
2023-03-19T07:21:06.731Z,25.73
2023-03-19T07:23:33.883Z,25.76
2023-03-19T07:26:00.884Z,25.79
2023-03-19T07:28:27.897Z,25.82
2023-03-19T07:30:54.991Z,25.85
2023-03-19T07:33:22.334Z,25.88
2023-03-19T07:35:49.314Z,25.89
2023-03-19T07:38:18.042Z,25.91
2023-03-19T07:40:55.158Z,25.92
2023-03-19T07:43:28.223Z,25.94
2023-03-19T07:45:55.054Z,25.95
2023-03-19T07:48:22.199Z,25.96
2023-03-19T07:50:52.646Z,25.97
2023-03-19T07:53:21.076Z,25.99
2023-03-19T07:55:48.470Z,25.99
2023-03-19T07:58:15.456Z,26.00
2023-03-19T08:00:42.743Z,26.01
2023-03-19T08:03:09.860Z,26.00
2023-03-19T08:05:36.917Z,26.02
2023-03-19T08:08:04.054Z,26.01
2023-03-19T08:10:34.942Z,26.01
2023-03-19T08:13:05.266Z,26.03
2023-03-19T08:15:32.384Z,26.03
2023-03-19T08:17:59.522Z,26.04
2023-03-19T08:20:26.501Z,26.04
2023-03-19T08:22:53.722Z,26.04
2023-03-19T08:25:20.652Z,26.04
2023-03-19T08:27:48.979Z,26.04
2023-03-19T08:30:17.526Z,26.05
2023-03-19T08:32:49.577Z,26.04
2023-03-19T08:35:16.967Z,26.08
2023-03-19T08:37:44.069Z,26.09
2023-03-19T08:40:12.007Z,26.08
2023-03-19T08:42:44.386Z,26.08
2023-03-19T08:45:15.468Z,26.08
2023-03-19T08:47:43.739Z,26.10
2023-03-19T08:50:12.007Z,26.08
2023-03-19T08:52:39.248Z,26.07
2023-03-19T08:55:07.470Z,26.07
2023-03-19T08:57:35.601Z,26.08
2023-03-19T09:00:02.927Z,26.10
2023-03-19T09:02:31.998Z,26.11
2023-03-19T09:04:59.076Z,26.10
2023-03-19T09:07:26.381Z,26.09
2023-03-19T09:09:53.258Z,26.10
2023-03-19T09:12:20.573Z,26.11
2023-03-19T09:14:47.650Z,26.11
2023-03-19T09:17:15.681Z,26.12
2023-03-19T09:19:43.996Z,26.11
2023-03-19T09:22:10.981Z,26.12
2023-03-19T09:24:40.479Z,26.11
2023-03-19T09:27:07.863Z,26.11
2023-03-19T09:29:34.918Z,26.11
2023-03-19T09:32:01.827Z,26.10
2023-03-19T09:34:28.809Z,26.09
2023-03-19T09:36:57.301Z,26.09
2023-03-19T09:39:24.256Z,26.10
2023-03-19T09:42:04.107Z,26.11
2023-03-19T09:44:35.262Z,26.08
2023-03-19T09:47:19.628Z,26.08
2023-03-19T09:49:50.802Z,26.09
2023-03-19T09:52:41.599Z,26.08
2023-03-19T09:55:20.977Z,26.05
2023-03-19T09:57:48.457Z,26.04
2023-03-19T10:00:22.504Z,26.06
2023-03-19T10:02:54.304Z,26.04
2023-03-19T10:05:31.518Z,26.05
2023-03-19T10:08:23.312Z,26.06
2023-03-19T10:11:00.970Z,26.06
2023-03-19T10:13:44.791Z,26.04
2023-03-19T10:16:17.020Z,26.05
2023-03-19T10:18:49.211Z,26.05
2023-03-19T10:21:23.531Z,26.13
2023-03-19T10:23:56.789Z,26.14
2023-03-19T10:26:30.395Z,26.16
2023-03-19T10:29:04.930Z,26.19
2023-03-19T10:31:42.812Z,26.18
2023-03-19T10:34:29.390Z,26.17
2023-03-19T10:37:00.581Z,26.17
2023-03-19T10:39:30.899Z,26.16
2023-03-19T10:42:08.433Z,26.16
2023-03-19T10:44:38.897Z,26.13
2023-03-19T10:47:14.462Z,26.14
2023-03-19T10:49:42.668Z,26.12
2023-03-19T10:52:20.017Z,26.11
2023-03-19T10:54:48.581Z,26.11
2023-03-19T10:57:25.478Z,26.11
2023-03-19T10:59:52.805Z,26.12
2023-03-19T11:02:21.447Z,26.08
2023-03-19T11:04:48.346Z,26.07
2023-03-19T11:07:20.652Z,26.07
2023-03-19T11:09:50.584Z,26.09
2023-03-19T11:12:20.532Z,26.13
2023-03-19T11:14:49.108Z,26.13
2023-03-19T11:17:21.770Z,26.13
2023-03-19T11:19:54.132Z,26.12
2023-03-19T11:22:23.740Z,26.09
2023-03-19T11:24:55.759Z,26.06
2023-03-19T11:27:34.175Z,26.08
2023-03-19T11:30:01.428Z,26.08
2023-03-19T11:32:51.808Z,26.08
2023-03-19T11:35:22.243Z,26.07
2023-03-19T11:37:55.296Z,26.06
2023-03-19T11:40:34.504Z,26.06
2023-03-19T11:43:17.280Z,26.06
2023-03-19T11:45:57.244Z,26.07
2023-03-19T11:48:40.728Z,26.06
2023-03-19T11:51:15.462Z,26.05
2023-03-19T11:53:53.381Z,26.05
2023-03-19T11:56:36.573Z,26.05
2023-03-19T11:59:17.886Z,26.04
2023-03-19T12:02:02.267Z,26.05
2023-03-19T12:04:49.563Z,26.03
2023-03-19T12:07:24.737Z,26.03
2023-03-19T12:10:03.406Z,26.01
2023-03-19T12:12:37.120Z,26.00
2023-03-19T12:15:17.100Z,26.00
2023-03-19T12:17:59.488Z,25.99
2023-03-19T12:20:35.638Z,25.98
2023-03-19T12:23:17.542Z,25.97
2023-03-19T12:26:05.142Z,25.95
2023-03-19T12:28:36.162Z,25.95
2023-03-19T12:31:29.368Z,25.94
2023-03-19T12:34:14.773Z,25.93
2023-03-19T12:36:49.701Z,25.92
2023-03-19T12:39:20.475Z,25.91
2023-03-19T12:41:51.339Z,25.91
2023-03-19T12:44:25.950Z,25.89
2023-03-19T12:46:59.461Z,25.90
2023-03-19T12:49:31.743Z,25.88
2023-03-19T12:52:02.285Z,25.88
2023-03-19T12:54:35.460Z,25.87
2023-03-19T12:57:07.222Z,25.88
2023-03-19T12:59:39.225Z,25.87
2023-03-19T13:02:18.242Z,25.87
2023-03-19T13:04:51.589Z,25.86
2023-03-19T13:07:23.556Z,25.84
2023-03-19T13:09:56.694Z,25.85
2023-03-19T13:12:28.130Z,25.84
2023-03-19T13:15:01.873Z,25.84
2023-03-19T13:17:38.231Z,25.79
2023-03-19T13:20:14.893Z,25.80
2023-03-19T13:22:47.569Z,25.79
2023-03-19T13:25:17.847Z,25.80
2023-03-19T13:27:54.232Z,25.80
2023-03-19T13:30:24.591Z,25.79
2023-03-19T13:32:54.644Z,25.79
2023-03-19T13:35:36.318Z,25.79
2023-03-19T13:38:07.561Z,25.79
2023-03-19T13:40:42.081Z,25.80
2023-03-19T13:43:46.596Z,25.80
2023-03-19T13:46:45.697Z,25.78
2023-03-19T13:49:27.999Z,25.76
2023-03-19T13:51:58.858Z,25.75
2023-03-19T13:54:34.807Z,25.76
2023-03-19T13:57:22.541Z,25.76
2023-03-19T13:59:51.173Z,25.76
2023-03-19T14:02:53.238Z,25.76
2023-03-19T14:05:21.553Z,25.74
2023-03-19T14:07:55.034Z,25.74
2023-03-19T14:10:25.911Z,25.75
2023-03-19T14:13:03.471Z,25.73
2023-03-19T14:15:31.299Z,25.75
2023-03-19T14:18:02.415Z,25.74
2023-03-19T14:20:39.768Z,25.73
2023-03-19T14:23:34.120Z,25.75
2023-03-19T14:26:13.100Z,25.74
2023-03-19T14:29:25.822Z,25.73
2023-03-19T14:31:55.809Z,25.72
2023-03-19T14:34:27.226Z,25.70
2023-03-19T14:36:58.947Z,25.72
2023-03-19T14:39:27.552Z,25.69
2023-03-19T14:42:01.385Z,25.69
2023-03-19T14:44:50.546Z,25.69
2023-03-19T14:47:51.162Z,25.65
2023-03-19T14:51:22.448Z,25.67
2023-03-19T14:54:17.448Z,25.66
2023-03-19T14:56:48.096Z,25.65
2023-03-19T14:59:33.550Z,25.67
2023-03-19T15:02:00.697Z,25.68
2023-03-19T15:04:27.618Z,25.67
2023-03-19T15:07:01.027Z,25.69
2023-03-19T15:09:48.404Z,25.70
2023-03-19T15:12:39.314Z,25.69
2023-03-19T15:15:34.871Z,25.69
2023-03-19T15:18:05.128Z,25.67
2023-03-19T15:20:37.393Z,25.67
2023-03-19T15:23:23.524Z,25.68
2023-03-19T15:25:57.580Z,25.68
2023-03-19T15:28:26.529Z,25.68
2023-03-19T15:31:41.789Z,25.67
2023-03-19T15:34:23.934Z,25.65
2023-03-19T15:36:53.860Z,25.67
2023-03-19T15:39:27.468Z,25.65
2023-03-19T15:41:56.672Z,25.65
2023-03-19T15:44:29.150Z,25.65
2023-03-19T15:46:58.470Z,25.66
2023-03-19T15:49:29.547Z,25.67
2023-03-19T15:52:01.134Z,25.67
2023-03-19T15:54:29.702Z,25.66
2023-03-19T15:56:57.206Z,25.68
2023-03-19T15:59:29.999Z,25.68
2023-03-19T16:02:00.010Z,25.67
2023-03-19T16:04:29.797Z,25.66
2023-03-19T16:06:58.576Z,25.68
2023-03-19T16:09:27.624Z,25.68
2023-03-19T16:11:57.137Z,25.67
2023-03-19T16:14:26.562Z,25.67
2023-03-19T16:17:01.043Z,25.66
2023-03-19T16:19:39.384Z,25.66
2023-03-19T16:22:13.895Z,25.65
2023-03-19T16:24:43.735Z,25.64
2023-03-19T16:27:15.383Z,25.64
2023-03-19T16:29:46.039Z,25.64
2023-03-19T16:32:20.149Z,25.65
2023-03-19T16:34:51.401Z,25.66
2023-03-19T16:37:40.426Z,25.67
2023-03-19T16:40:42.088Z,25.64
2023-03-19T16:43:14.507Z,25.61
2023-03-19T16:45:42.558Z,25.60
2023-03-19T16:48:09.487Z,25.60
2023-03-19T16:50:38.190Z,25.62
2023-03-19T16:53:12.703Z,25.63
2023-03-19T16:55:39.856Z,25.62
2023-03-19T16:58:13.427Z,25.64
2023-03-19T17:00:43.753Z,25.65
2023-03-19T17:03:12.972Z,25.63
2023-03-19T17:05:39.843Z,25.65
2023-03-19T17:08:06.958Z,25.65
2023-03-19T17:10:36.328Z,25.66
2023-03-19T17:13:04.279Z,25.64
2023-03-19T17:15:35.600Z,25.63
2023-03-19T17:18:08.214Z,25.66
2023-03-19T17:20:38.332Z,25.63
2023-03-19T17:23:11.153Z,25.61
2023-03-19T17:25:38.439Z,25.63
2023-03-19T17:28:06.150Z,25.62
2023-03-19T17:30:33.737Z,25.63
2023-03-19T17:33:01.024Z,25.62
2023-03-19T17:35:29.729Z,25.62
2023-03-19T17:37:56.675Z,25.63
2023-03-19T17:40:27.351Z,25.63
2023-03-19T17:42:55.905Z,25.64
2023-03-19T17:45:27.814Z,25.63
2023-03-19T17:47:56.906Z,25.65
2023-03-19T17:50:27.105Z,25.63
2023-03-19T17:52:55.582Z,25.62
2023-03-19T17:55:24.503Z,25.59
2023-03-19T17:57:52.035Z,25.61
2023-03-19T18:00:20.729Z,25.62
2023-03-19T18:02:50.238Z,25.60
2023-03-19T18:05:19.421Z,25.62
2023-03-19T18:07:47.763Z,25.60
2023-03-19T18:10:18.107Z,25.61
2023-03-19T18:12:45.257Z,25.62
2023-03-19T18:15:13.486Z,25.60
2023-03-19T18:17:42.588Z,25.60
2023-03-19T18:20:14.029Z,25.60
2023-03-19T18:22:41.384Z,25.60
2023-03-19T18:25:16.600Z,25.61
2023-03-19T18:27:44.211Z,25.62
2023-03-19T18:30:12.902Z,25.60
2023-03-19T18:32:44.254Z,25.59
2023-03-19T18:35:14.594Z,25.62
2023-03-19T18:37:41.645Z,25.59
2023-03-19T18:40:13.718Z,25.59
2023-03-19T18:42:42.536Z,25.59
2023-03-19T18:45:12.374Z,25.58
2023-03-19T18:47:39.809Z,25.60
2023-03-19T18:50:16.452Z,25.60
2023-03-19T18:52:43.522Z,25.58
2023-03-19T18:55:11.618Z,25.58
2023-03-19T18:57:52.606Z,25.58
2023-03-19T19:00:23.328Z,25.59
2023-03-19T19:02:50.945Z,25.59
2023-03-19T19:05:19.477Z,25.58
2023-03-19T19:07:46.602Z,25.58
2023-03-19T19:10:13.674Z,25.59
2023-03-19T19:12:45.848Z,25.59
2023-03-19T19:15:19.823Z,25.60
2023-03-19T19:17:48.055Z,25.59
2023-03-19T19:20:16.505Z,25.59
2023-03-19T19:22:43.737Z,25.60
2023-03-19T19:25:16.071Z,25.59
2023-03-19T19:27:47.370Z,25.59
2023-03-19T19:30:15.902Z,25.61
2023-03-19T19:32:42.821Z,25.58
2023-03-19T19:35:15.624Z,25.57
2023-03-19T19:37:42.566Z,25.56
2023-03-19T19:40:12.497Z,25.57
2023-03-19T19:42:39.849Z,25.57
2023-03-19T19:45:27.994Z,25.56
2023-03-19T19:47:55.130Z,25.56
2023-03-19T19:50:23.358Z,25.55
2023-03-19T19:52:50.308Z,25.57
2023-03-19T19:55:17.456Z,25.56
2023-03-19T19:57:45.097Z,25.56
2023-03-19T20:00:19.822Z,25.56
2023-03-19T20:02:47.055Z,25.57
2023-03-19T20:05:19.954Z,25.56
2023-03-19T20:07:46.920Z,25.54
2023-03-19T20:10:14.477Z,25.55
2023-03-19T20:12:44.652Z,25.56
2023-03-19T20:15:18.330Z,25.57
2023-03-19T20:17:47.010Z,25.55
2023-03-19T20:20:15.913Z,25.56
2023-03-19T20:22:43.867Z,25.57
2023-03-19T20:25:11.035Z,25.56
2023-03-19T20:27:38.619Z,25.54
2023-03-19T20:30:08.354Z,25.55
2023-03-19T20:32:38.376Z,25.55
2023-03-19T20:35:14.458Z,25.53
2023-03-19T20:37:41.598Z,25.52
2023-03-19T20:40:09.415Z,25.52
2023-03-19T20:42:36.435Z,25.52
2023-03-19T20:45:04.316Z,25.53
2023-03-19T20:47:33.178Z,25.51
2023-03-19T20:50:01.978Z,25.51
2023-03-19T20:52:30.125Z,25.51
2023-03-19T20:54:58.213Z,25.50
2023-03-19T20:57:29.250Z,25.50
2023-03-19T20:59:56.388Z,25.47
2023-03-19T21:02:25.211Z,25.45
2023-03-19T21:04:52.111Z,25.41
2023-03-19T21:07:28.755Z,25.40
2023-03-19T21:09:56.566Z,25.36
2023-03-19T21:12:29.154Z,25.32
2023-03-19T21:14:56.862Z,25.29
2023-03-19T21:17:23.837Z,25.25
2023-03-19T21:19:50.844Z,25.24
2023-03-19T21:22:24.083Z,25.27
2023-03-19T21:24:53.133Z,25.27
2023-03-19T21:27:24.209Z,25.26
2023-03-19T21:29:53.258Z,25.27
2023-03-19T21:32:21.404Z,25.26
2023-03-19T21:34:49.480Z,25.25
2023-03-19T21:37:16.607Z,25.26
2023-03-19T21:39:46.389Z,25.25
2023-03-19T21:42:16.934Z,25.25
2023-03-19T21:44:44.708Z,25.25
2023-03-19T21:47:13.850Z,25.22
2023-03-19T21:49:40.840Z,25.24
2023-03-19T21:52:12.467Z,25.23
2023-03-19T21:54:40.552Z,25.22
2023-03-19T21:57:12.861Z,25.21
2023-03-19T21:59:40.692Z,25.20
2023-03-19T22:02:37.621Z,25.19
2023-03-19T22:05:15.352Z,25.18
2023-03-19T22:07:42.472Z,25.18
2023-03-19T22:10:10.601Z,25.17
2023-03-19T22:12:41.290Z,25.16
2023-03-19T22:15:19.758Z,25.18
2023-03-19T22:17:48.232Z,25.17
2023-03-19T22:20:17.661Z,25.15
2023-03-19T22:22:44.681Z,25.15
2023-03-19T22:25:12.449Z,25.13
2023-03-19T22:27:42.231Z,25.13
2023-03-19T22:30:20.442Z,25.13
2023-03-19T22:32:48.036Z,25.13
2023-03-19T22:35:16.581Z,25.11
2023-03-19T22:37:43.859Z,25.10
2023-03-19T22:40:17.784Z,25.09
2023-03-19T22:42:48.547Z,25.09
2023-03-19T22:45:23.230Z,25.08
2023-03-19T22:47:50.338Z,25.08
2023-03-19T22:50:20.886Z,25.06
2023-03-19T22:52:47.978Z,25.06
2023-03-19T22:55:15.702Z,25.07
2023-03-19T22:57:43.246Z,25.06
2023-03-19T23:00:17.218Z,25.06
2023-03-19T23:02:45.614Z,25.05
2023-03-19T23:05:29.821Z,25.05
2023-03-19T23:07:57.450Z,25.04
2023-03-19T23:10:26.843Z,25.03
2023-03-19T23:12:54.378Z,25.02
2023-03-19T23:15:25.364Z,25.03
2023-03-19T23:17:56.007Z,25.05
2023-03-19T23:20:24.947Z,25.10
2023-03-19T23:22:52.924Z,25.14
2023-03-19T23:25:24.073Z,25.18
2023-03-19T23:27:51.380Z,25.21
2023-03-19T23:30:24.014Z,25.25
2023-03-19T23:32:51.017Z,25.29
2023-03-19T23:35:19.707Z,25.31
2023-03-19T23:37:47.325Z,25.33
2023-03-19T23:40:16.909Z,25.35
2023-03-19T23:42:47.175Z,25.37
2023-03-19T23:45:29.307Z,25.37
2023-03-19T23:47:58.153Z,25.37
2023-03-19T23:50:25.314Z,25.37
2023-03-19T23:52:52.617Z,25.38
2023-03-19T23:55:19.657Z,25.37
2023-03-19T23:57:47.502Z,25.36
